Time;durP1;ratioP1;P1;durP2;ratioP2;P2;SDS_P1;SDS_P2;PMS_P1;PMS_P2;Temp;Humidity;BMP_temperature;BMP_pressure;BME280_temperature;BME280_humidity;BME280_pressure;Samples;Min_cycle;Max_cycle;Signal;HPM_P1;HPM_P2
2023/12/09 00:00:38;;;;;;;9.32;2.10;;;;;;;19.13;35.99;101018.53;16115370;19;132221;-49
2023/12/09 00:06:00;;;;;;;9.35;2.35;;;;;;;19.04;36.06;101015.31;16115805;19;129616;-49
2023/12/09 00:11:22;;;;;;;7.95;2.00;;;;;;;18.94;36.49;101009.56;16113492;19;129510;-49
2023/12/09 00:16:45;;;;;;;8.48;1.77;;;;;;;18.87;36.37;101001.41;16108088;19;130301;-48
2023/12/09 00:22:08;;;;;;;7.90;1.65;;;;;;;18.79;36.69;100999.84;16106359;19;131471;-48
2023/12/09 00:27:30;;;;;;;7.65;1.52;;;;;;;18.70;36.36;101002.19;16110715;19;131825;-49
2023/12/09 00:32:52;;;;;;;5.03;1.85;;;;;;;18.64;36.41;100978.22;16107313;19;130319;-50
2023/12/09 00:38:14;;;;;;;11.80;2.00;;;;;;;18.58;36.65;100980.03;16110005;19;129457;-48
2023/12/09 00:43:36;;;;;;;7.45;1.70;;;;;;;18.52;36.72;100991.25;16110771;19;131803;-45
2023/12/09 00:48:58;;;;;;;9.75;1.48;;;;;;;18.46;36.93;100993.06;16111822;19;130155;-50
2023/12/09 00:54:20;;;;;;;10.40;1.83;;;;;;;18.41;36.57;100991.03;16114819;19;130116;-45
2023/12/09 00:59:42;;;;;;;4.68;1.48;;;;;;;18.37;36.67;100992.56;16106911;19;130988;-48
2023/12/09 01:05:05;;;;;;;5.20;1.55;;;;;;;18.30;36.59;100989.09;16104426;19;131736;-50
2023/12/09 01:10:27;;;;;;;5.03;1.40;;;;;;;18.25;36.65;100973.22;16108655;19;130077;-50
2023/12/09 01:15:49;;;;;;;4.53;1.60;;;;;;;18.23;36.88;100960.69;16103150;19;131097;-51
2023/12/09 01:21:11;;;;;;;3.38;1.33;;;;;;;18.17;37.04;100956.94;16105575;19;129626;-52
2023/12/09 01:26:34;;;;;;;9.43;1.42;;;;;;;18.13;37.14;100948.28;16107955;19;129650;-47
2023/12/09 01:31:56;;;;;;;7.13;1.38;;;;;;;18.08;36.74;100934.34;16108051;19;132924;-52
2023/12/09 01:37:18;;;;;;;6.18;1.27;;;;;;;18.07;37.03;100929.03;16103760;19;130149;-51
2023/12/09 01:42:44;;;;;;;2.58;1.17;;;;;;;18.04;36.98;100933.16;16105898;19;131164;-50
2023/12/09 01:48:08;;;;;;;2.90;1.30;;;;;;;17.98;36.75;100940.50;16106843;19;129498;-47
2023/12/09 01:53:30;;;;;;;3.80;1.42;;;;;;;17.97;36.93;100946.28;16099137;19;129509;-48
2023/12/09 01:58:53;;;;;;;4.43;1.33;;;;;;;17.95;36.74;100932.66;16101409;19;129635;-49
2023/12/09 02:04:15;;;;;;;3.92;1.30;;;;;;;17.91;37.03;100928.69;16101493;19;129902;-46
2023/12/09 02:09:42;;;;;;;2.80;1.20;;;;;;;17.88;36.74;100936.63;16107198;19;129940;-45
2023/12/09 02:15:33;;;;;;;4.40;1.45;;;;;;;17.85;37.02;100924.97;16103162;19;129631;-46
2023/12/09 02:20:56;;;;;;;4.93;1.35;;;;;;;17.79;37.03;100906.56;16102760;19;130423;-48
2023/12/09 02:26:22;;;;;;;3.42;1.38;;;;;;;17.78;37.17;100913.19;16100307;19;130742;-44
2023/12/09 02:31:45;;;;;;;5.50;1.10;;;;;;;17.76;37.19;100900.69;16094442;19;130606;-46
2023/12/09 02:37:09;;;;;;;3.78;1.00;;;;;;;17.74;36.78;100892.59;16101482;19;129763;-48
2023/12/09 02:42:31;;;;;;;2.92;1.25;;;;;;;17.73;37.03;100882.63;16103034;19;130228;-47
2023/12/09 02:47:53;;;;;;;3.85;0.90;;;;;;;17.70;36.74;100888.66;16101194;19;131053;-45
2023/12/09 02:53:15;;;;;;;2.58;0.95;;;;;;;17.67;36.73;100887.19;16101181;19;133951;-49
2023/12/09 02:58:37;;;;;;;2.63;1.00;;;;;;;17.65;37.14;100880.22;16095745;19;129451;-49
2023/12/09 03:04:00;;;;;;;3.67;1.08;;;;;;;17.63;36.88;100879.63;16099437;19;130615;-45
2023/12/09 03:09:22;;;;;;;4.18;1.02;;;;;;;17.62;37.21;100870.47;16103460;19;130514;-48
2023/12/09 03:14:44;;;;;;;4.88;1.20;;;;;;;17.60;36.77;100866.28;16113863;19;129998;-50
2023/12/09 03:20:09;;;;;;;1.90;0.80;;;;;;;17.59;37.13;100848.00;16116019;19;130145;-47
2023/12/09 03:25:32;;;;;;;2.50;0.90;;;;;;;17.57;37.19;100842.69;16116305;19;129618;-52
2023/12/09 03:30:54;;;;;;;2.13;1.08;;;;;;;17.54;37.12;100840.38;16114361;19;129603;-48
2023/12/09 03:36:16;;;;;;;2.53;0.95;;;;;;;17.54;36.82;100838.50;16116548;19;131472;-50
2023/12/09 03:41:38;;;;;;;4.50;0.90;;;;;;;17.52;36.93;100820.44;16117005;19;129696;-53
2023/12/09 03:47:00;;;;;;;4.20;0.93;;;;;;;17.50;36.90;100809.59;16111936;19;132824;-48
2023/12/09 03:52:32;;;;;;;2.92;0.90;;;;;;;17.47;37.20;100809.22;16111232;19;129767;-48
2023/12/09 03:57:57;;;;;;;1.60;0.70;;;;;;;17.46;36.87;100805.63;16112529;19;130545;-49
2023/12/09 04:03:19;;;;;;;2.37;0.73;;;;;;;17.44;37.01;100798.66;16110478;19;129661;-49
2023/12/09 04:08:41;;;;;;;2.78;0.90;;;;;;;17.42;36.95;100796.13;16107084;19;129881;-45
2023/12/09 04:14:04;;;;;;;2.47;0.82;;;;;;;17.39;37.13;100791.94;16107680;19;131246;-48
2023/12/09 04:19:25;;;;;;;2.25;0.70;;;;;;;17.38;37.00;100781.09;16110485;19;131388;-44
2023/12/09 04:24:48;;;;;;;2.92;1.02;;;;;;;17.37;36.99;100760.06;16103572;19;129849;-45
2023/12/09 04:30:11;;;;;;;1.67;0.90;;;;;;;17.36;37.11;100761.13;16106927;19;131157;-51
2023/12/09 04:35:33;;;;;;;2.03;0.80;;;;;;;17.34;36.78;100757.78;16103979;19;130792;-48
2023/12/09 04:40:55;;;;;;;2.03;0.73;;;;;;;17.32;37.06;100754.44;16106922;19;132919;-52
2023/12/09 04:46:18;;;;;;;2.70;1.00;;;;;;;17.31;37.10;100752.75;16110830;19;131143;-50
2023/12/09 04:51:39;;;;;;;2.53;0.95;;;;;;;17.29;36.90;100744.69;16111225;19;130692;-50
2023/12/09 04:57:02;;;;;;;4.10;0.85;;;;;;;17.28;37.02;100742.16;16109889;19;129587;-51
2023/12/09 05:02:24;;;;;;;3.35;0.90;;;;;;;17.26;36.83;100724.97;16107155;19;131238;-49
2023/12/09 05:07:47;;;;;;;3.58;1.00;;;;;;;17.24;36.63;100731.56;16109515;19;129747;-51
2023/12/09 05:13:09;;;;;;;2.80;1.00;;;;;;;17.24;36.84;100727.97;16106143;19;130161;-48
2023/12/09 05:18:33;;;;;;;2.22;0.82;;;;;;;17.21;36.66;100718.25;16105903;19;130712;-51
2023/12/09 05:23:55;;;;;;;2.28;0.95;;;;;;;17.20;36.62;100724.88;16106343;19;133260;-48
2023/12/09 05:29:17;;;;;;;2.47;0.80;;;;;;;17.19;37.04;100725.94;16109272;19;131021;-46
2023/12/09 05:34:39;;;;;;;2.83;0.80;;;;;;;17.18;37.07;100717.88;16104439;19;129819;-49
2023/12/09 05:40:03;;;;;;;1.85;0.70;;;;;;;17.16;36.58;100715.38;16104936;19;130800;-46
2023/12/09 05:45:26;;;;;;;2.00;0.90;;;;;;;17.16;36.62;100709.00;16110051;19;129541;-51
2023/12/09 05:50:48;;;;;;;2.78;0.80;;;;;;;17.15;36.62;100724.75;16106081;19;130756;-50
2023/12/09 05:56:13;;;;;;;2.47;0.82;;;;;;;17.14;36.96;100719.47;16104676;19;130799;-51
2023/12/09 06:01:36;;;;;;;2.08;0.98;;;;;;;17.13;36.61;100710.31;16107551;19;133374;-45
2023/12/09 06:06:58;;;;;;;2.80;1.00;;;;;;;17.10;36.90;100702.53;16103449;19;130491;-45
2023/12/09 06:12:20;;;;;;;4.22;1.10;;;;;;;17.19;36.75;100683.63;16103470;19;130515;-46
2023/12/09 06:17:42;;;;;;;2.15;0.93;;;;;;;17.41;36.50;100667.25;16103254;19;129926;-50
2023/12/09 06:23:05;;;;;;;2.30;0.80;;;;;;;17.74;36.00;100645.53;16105065;19;130031;-46
2023/12/09 06:28:27;;;;;;;3.00;0.90;;;;;;;18.03;35.98;100651.88;16098585;19;131693;-49
2023/12/09 06:33:49;;;;;;;1.67;0.70;;;;;;;18.29;35.76;100639.31;16096785;19;131531;-45
2023/12/09 06:39:11;;;;;;;3.03;0.93;;;;;;;18.51;35.08;100618.34;16098684;19;129627;-50
2023/12/09 06:44:33;;;;;;;1.95;0.75;;;;;;;18.69;35.30;100607.00;16108628;19;130618;-46
2023/12/09 06:49:55;;;;;;;2.38;0.88;;;;;;;18.84;34.70;100597.22;16113796;19;129775;-50
2023/12/09 06:55:17;;;;;;;2.38;0.77;;;;;;;18.96;34.87;100586.03;16121551;19;129481;-48
2023/12/09 07:00:39;;;;;;;3.67;0.98;;;;;;;19.01;34.80;100584.16;16118176;19;132403;-48
2023/12/09 07:06:01;;;;;;;2.75;0.70;;;;;;;19.02;34.59;100565.59;16113813;19;129746;-45
2023/12/09 07:11:23;;;;;;;2.25;0.70;;;;;;;19.08;34.75;100550.69;16115625;19;132703;-47
2023/12/09 07:16:45;;;;;;;2.00;1.00;;;;;;;19.08;34.67;100532.13;16118314;19;129771;-50
2023/12/09 07:22:07;;;;;;;3.28;0.85;;;;;;;19.03;34.36;100526.53;16110485;19;129699;-48
2023/12/09 07:27:29;;;;;;;3.35;0.85;;;;;;;18.97;34.39;100533.09;16105826;19;130414;-49
2023/12/09 07:32:51;;;;;;;2.13;0.82;;;;;;;18.87;34.63;100494.16;16114792;19;130695;-47
2023/12/09 07:38:13;;;;;;;2.05;0.80;;;;;;;18.75;34.74;100486.81;16114122;19;130872;-46
2023/12/09 07:43:35;;;;;;;2.47;0.95;;;;;;;18.71;34.62;100474.56;16112812;19;130024;-48
2023/12/09 07:49:01;;;;;;;1.75;0.90;;;;;;;18.71;35.14;100476.50;16113910;19;131759;-48
2023/12/09 07:54:23;;;;;;;2.97;0.70;;;;;;;18.71;34.80;100465.44;16112670;19;129932;-49
2023/12/09 07:59:46;;;;;;;1.83;0.70;;;;;;;18.69;34.60;100453.75;16111340;19;131875;-45
2023/12/09 08:05:08;;;;;;;2.75;1.10;;;;;;;18.70;34.65;100455.44;16109964;19;130414;-49
2023/12/09 08:10:30;;;;;;;3.15;1.05;;;;;;;18.67;35.10;100469.81;16106641;19;130347;-48
2023/12/09 08:15:52;;;;;;;5.55;1.20;;;;;;;18.62;34.60;100459.50;16110248;19;131471;-47
2023/12/09 08:21:14;;;;;;;5.97;1.38;;;;;;;18.58;34.79;100447.28;16106329;19;129748;-44
2023/12/09 08:26:37;;;;;;;5.20;1.35;;;;;;;18.65;34.74;100445.13;16109710;19;130262;-48
2023/12/09 08:31:59;;;;;;;6.07;1.25;;;;;;;18.83;34.52;100449.50;16102182;19;130441;-47
2023/12/09 08:37:25;;;;;;;7.00;1.63;;;;;;;19.03;34.57;100443.34;16106746;19;131161;-48
2023/12/09 08:42:47;;;;;;;6.10;1.27;;;;;;;19.17;34.10;100445.72;16105836;19;129818;-46
2023/12/09 08:48:09;;;;;;;3.55;0.90;;;;;;;19.32;34.34;100432.00;16109425;19;130483;-46
2023/12/09 08:53:31;;;;;;;3.53;0.98;;;;;;;19.45;34.36;100427.97;16110319;19;130971;-46
2023/12/09 08:58:53;;;;;;;2.78;1.20;;;;;;;19.57;34.34;100408.34;16105247;19;131487;-45
2023/12/09 09:04:15;;;;;;;2.83;0.80;;;;;;;19.68;34.05;100396.25;16103776;19;130294;-44
2023/12/09 09:09:39;;;;;;;2.38;0.90;;;;;;;19.79;34.17;100388.81;16104533;19;130861;-46
2023/12/09 09:15:01;;;;;;;3.38;0.85;;;;;;;19.86;33.93;100360.84;16099598;19;130160;-47
2023/12/09 09:20:28;;;;;;;4.82;1.20;;;;;;;19.85;33.75;100331.41;16106090;19;130842;-47
2023/12/09 09:25:51;;;;;;;6.70;1.60;;;;;;;19.84;33.89;100344.47;16103499;19;131571;-45
2023/12/09 09:31:13;;;;;;;4.00;1.13;;;;;;;19.80;33.90;100314.75;16103628;19;129908;-48
2023/12/09 09:36:35;;;;;;;6.20;1.00;;;;;;;19.74;34.14;100307.47;16104188;19;129658;-44
2023/12/09 09:42:18;;;;;;;5.75;1.10;;;;;;;19.67;33.70;100286.38;16102811;19;129775;-45
2023/12/09 09:47:41;;;;;;;5.22;1.48;;;;;;;19.59;33.97;100281.31;16106524;19;130237;-47
2023/12/09 09:53:07;;;;;;;5.15;1.52;;;;;;;19.54;34.20;100286.84;16104270;19;130884;-43
2023/12/09 09:58:30;;;;;;;4.90;0.98;;;;;;;19.48;33.84;100271.25;16102854;19;129590;-47
2023/12/09 10:03:52;;;;;;;5.18;1.25;;;;;;;19.42;34.05;100244.59;16105569;19;131714;-48
2023/12/09 10:09:14;;;;;;;5.65;1.30;;;;;;;19.36;34.15;100218.78;16104730;19;130292;-47
2023/12/09 10:14:37;;;;;;;4.43;1.25;;;;;;;19.30;34.04;100200.41;16103522;19;130820;-45
2023/12/09 10:19:59;;;;;;;5.55;0.88;;;;;;;19.26;34.30;100180.72;16114658;19;130027;-46
2023/12/09 10:25:24;;;;;;;3.75;1.00;;;;;;;19.21;34.55;100172.34;16111970;19;130551;-44
2023/12/09 10:30:47;;;;;;;;;;;;;;;19.10;34.56;100145.66;16113444;19;129775;-46
2023/12/09 10:36:10;;;;;;;13.85;1.10;;;;;;;19.06;34.39;100128.72;16115524;19;131466;-44
2023/12/09 10:41:32;;;;;;;9.90;1.33;;;;;;;19.00;35.20;100111.22;16108740;19;131589;-42
2023/12/09 10:46:54;;;;;;;3.63;1.17;;;;;;;18.98;35.14;100096.78;16115076;19;130685;-48
2023/12/09 10:52:16;;;;;;;3.00;0.98;;;;;;;18.98;35.52;100063.53;16110133;19;130379;-48
2023/12/09 10:57:39;;;;;;;4.80;1.23;;;;;;;18.95;35.54;100025.28;16115310;19;130458;-48
2023/12/09 11:03:01;;;;;;;6.68;1.05;;;;;;;18.94;35.46;99995.91;16114059;19;130272;-51
2023/12/09 11:08:28;;;;;;;3.47;0.90;;;;;;;18.97;35.73;99984.25;16103649;19;131246;-47
2023/12/09 11:13:50;;;;;;;8.02;1.42;;;;;;;18.97;35.64;99973.16;16109640;19;130112;-51
2023/12/09 11:19:19;;;;;;;4.63;0.82;;;;;;;18.97;36.03;99912.19;16105571;19;132491;-50
2023/12/09 11:24:46;;;;;;;8.73;1.17;;;;;;;18.96;36.22;99876.44;16106246;19;130285;-48
2023/12/09 11:30:30;;;;;;;6.22;0.65;;;;;;;18.97;36.09;99851.22;16106838;19;129848;-54
2023/12/09 11:35:54;;;;;;;7.07;1.05;;;;;;;19.00;35.88;99825.72;16103562;19;131023;-56
2023/12/09 11:41:16;;;;;;;7.95;1.17;;;;;;;19.03;35.83;99816.88;16108783;19;131252;-54
2023/12/09 11:46:39;;;;;;;6.45;1.30;;;;;;;19.06;35.95;99788.59;16096766;19;130885;-54
2023/12/09 11:52:01;;;;;;;3.70;0.80;;;;;;;19.10;36.03;99768.63;16109846;19;133440;-51
2023/12/09 11:57:23;;;;;;;5.90;0.90;;;;;;;19.08;36.06;99752.28;16104132;19;131097;-54
2023/12/09 12:02:45;;;;;;;9.48;0.93;;;;;;;19.05;36.05;99737.03;16105377;19;130256;-54
2023/12/09 12:08:07;;;;;;;4.25;0.90;;;;;;;19.02;36.12;99707.09;16104277;19;133012;-54
2023/12/09 12:13:29;;;;;;;2.05;0.70;;;;;;;18.95;35.71;99670.53;15958479;19;2915269;-53
2023/12/09 12:18:54;;;;;;;3.92;0.90;;;;;;;18.92;36.16;99637.81;16109560;19;131638;-49
2023/12/09 12:24:17;;;;;;;2.70;0.70;;;;;;;19.00;36.25;99612.31;16112064;19;134795;-50
2023/12/09 12:29:40;;;;;;;2.83;1.00;;;;;;;19.15;35.91;99602.28;16107615;19;132920;-53
2023/12/09 12:35:05;;;;;;;2.17;0.60;;;;;;;19.28;36.10;99579.53;16103076;19;131987;-55
2023/12/09 12:40:27;;;;;;;;;;;;;;;19.37;36.01;99572.28;16102843;19;131198;-54
2023/12/09 12:45:51;;;;;;;5.05;0.90;;;;;;;19.51;35.25;99547.50;16107243;19;130242;-55
2023/12/09 12:51:14;;;;;;;3.72;0.70;;;;;;;19.62;35.25;99533.63;16102344;19;129584;-55
2023/12/09 12:56:36;;;;;;;4.00;0.50;;;;;;;19.72;35.43;99521.59;16111246;19;135502;-53
2023/12/09 13:01:59;;;;;;;5.20;0.60;;;;;;;19.81;35.25;99494.91;16109511;19;130291;-53
2023/12/09 13:07:21;;;;;;;3.30;0.60;;;;;;;19.87;34.75;99476.28;16109692;19;132198;-53
2023/12/09 13:12:43;;;;;;;7.00;1.20;;;;;;;19.95;35.13;99440.38;16105777;19;130029;-52
2023/12/09 13:18:05;;;;;;;9.77;0.88;;;;;;;19.99;34.76;99419.28;16107641;19;129629;-47
2023/12/09 13:23:28;;;;;;;5.60;0.93;;;;;;;19.99;34.88;99393.44;16105126;19;130325;-50
2023/12/09 13:28:50;;;;;;;10.55;0.88;;;;;;;19.93;34.92;99372.41;16105579;19;130990;-51
2023/12/09 13:34:12;;;;;;;6.20;1.20;;;;;;;19.83;35.18;99365.00;16109405;19;129502;-50
2023/12/09 13:39:37;;;;;;;6.78;1.00;;;;;;;19.78;35.67;99345.63;16109047;19;131478;-54
2023/12/09 13:45:00;;;;;;;4.88;0.70;;;;;;;19.71;35.31;99331.28;16109497;19;130520;-51
2023/12/09 13:50:22;;;;;;;7.45;0.82;;;;;;;19.63;35.68;99319.69;16106749;19;129510;-48
2023/12/09 13:55:44;;;;;;;5.95;0.80;;;;;;;19.55;35.75;99289.81;16108912;19;130463;-52
2023/12/09 14:01:06;;;;;;;5.10;0.68;;;;;;;19.47;36.01;99266.31;16106158;19;129794;-50
2023/12/09 14:06:28;;;;;;;11.82;0.80;;;;;;;19.40;35.90;99248.38;16107394;19;129925;-47
2023/12/09 14:11:50;;;;;;;8.75;0.70;;;;;;;19.38;35.89;99226.50;16107817;19;131008;-47
2023/12/09 14:17:13;;;;;;;10.52;1.23;;;;;;;19.32;35.98;99197.97;16106560;19;131742;-49
2023/12/09 14:22:36;;;;;;;8.10;0.70;;;;;;;19.29;36.27;99198.56;16104776;19;133059;-51
2023/12/09 14:27:58;;;;;;;3.80;0.85;;;;;;;19.26;36.10;99199.16;16106648;19;130445;-48
2023/12/09 14:33:20;;;;;;;11.70;0.80;;;;;;;19.25;36.19;99185.59;16107349;19;130567;-49
2023/12/09 14:38:42;;;;;;;8.45;1.10;;;;;;;19.23;35.94;99169.22;16097893;19;130324;-48
2023/12/09 14:44:04;;;;;;;2.13;0.60;;;;;;;19.21;36.26;99157.59;16098102;19;130050;-53
2023/12/09 14:49:29;;;;;;;9.50;0.82;;;;;;;19.18;36.42;99134.03;16100962;19;131229;-52
2023/12/09 14:54:52;;;;;;;4.95;0.60;;;;;;;19.18;36.41;99119.38;16101683;19;129467;-52
2023/12/09 15:00:15;;;;;;;5.13;0.70;;;;;;;19.17;36.07;99106.63;16104705;19;129576;-50
2023/12/09 15:05:38;;;;;;;3.08;0.60;;;;;;;19.13;36.10;99109.16;16112703;19;129915;-50
2023/12/09 15:11:00;;;;;;;3.70;0.52;;;;;;;19.11;36.42;99096.69;16120279;19;130013;-50
2023/12/09 15:16:22;;;;;;;2.30;0.47;;;;;;;19.11;36.40;99089.22;16117515;19;129334;-51
2023/12/09 15:21:44;;;;;;;3.35;0.60;;;;;;;19.08;36.55;99092.59;16116110;19;129699;-52
2023/12/09 15:27:07;;;;;;;4.90;0.85;;;;;;;19.07;36.47;99085.38;16112821;19;129948;-49
2023/12/09 15:32:29;;;;;;;2.35;0.63;;;;;;;19.06;36.49;99092.88;16117739;19;129024;-51
2023/12/09 15:37:52;;;;;;;1.58;0.60;;;;;;;19.06;36.21;99098.44;16113653;19;129900;-52
2023/12/09 15:43:14;;;;;;;3.28;0.40;;;;;;;19.05;36.21;99107.88;16115111;19;129294;-53
2023/12/09 15:48:36;;;;;;;3.53;0.40;;;;;;;19.05;36.38;99101.47;16117651;19;133933;-54
2023/12/09 15:53:58;;;;;;;2.92;0.40;;;;;;;19.03;36.47;99090.69;16115572;19;129896;-49
2023/12/09 15:59:20;;;;;;;2.40;0.52;;;;;;;19.01;36.57;99090.16;16118376;19;129425;-50
2023/12/09 16:04:42;;;;;;;1.65;0.60;;;;;;;19.01;36.74;99081.84;16116576;19;129784;-53
2023/12/09 16:10:06;;;;;;;3.90;0.30;;;;;;;19.02;36.77;99090.97;16111738;19;132589;-48
2023/12/09 16:15:28;;;;;;;2.10;0.30;;;;;;;19.01;36.65;99081.84;16108677;19;129765;-53
2023/12/09 16:20:50;;;;;;;2.50;0.25;;;;;;;19.00;36.36;99077.41;16113672;19;129978;-50
2023/12/09 16:26:12;;;;;;;0.95;0.30;;;;;;;18.99;36.42;99089.63;16112665;19;129849;-52
2023/12/09 16:31:34;;;;;;;2.45;0.30;;;;;;;18.98;36.64;99090.75;16116462;19;130255;-50
2023/12/09 16:36:57;;;;;;;0.93;0.40;;;;;;;18.98;36.72;99115.69;16113343;19;130484;-53
2023/12/09 16:42:19;;;;;;;1.83;0.47;;;;;;;18.97;36.44;99114.03;16107214;19;131896;-52
2023/12/09 16:47:41;;;;;;;1.30;0.20;;;;;;;18.95;36.60;99116.28;16114700;19;129682;-53
2023/12/09 16:53:04;;;;;;;0.63;0.25;;;;;;;18.95;36.45;99127.38;16113483;19;129696;-51
2023/12/09 16:58:26;;;;;;;0.95;0.17;;;;;;;18.95;36.94;99110.75;16112468;19;129905;-51
2023/12/09 17:03:48;;;;;;;1.42;0.52;;;;;;;18.95;36.54;99104.38;16112587;19;129657;-53
2023/12/09 17:09:10;;;;;;;0.77;0.20;;;;;;;18.95;36.63;99129.31;16111760;19;129963;-53
2023/12/09 17:14:32;;;;;;;1.40;0.20;;;;;;;18.93;36.58;99135.16;16110500;19;130835;-53
2023/12/09 17:19:54;;;;;;;0.85;0.30;;;;;;;18.92;36.76;99139.03;16110705;19;129538;-50
2023/12/09 17:25:17;;;;;;;0.25;0.13;;;;;;;18.92;36.64;99150.13;16109086;19;131511;-48
2023/12/09 17:30:39;;;;;;;0.22;0.20;;;;;;;18.91;37.06;99148.47;16110254;19;130181;-52
2023/12/09 17:36:01;;;;;;;0.38;0.20;;;;;;;18.92;36.90;99144.56;16108740;19;130812;-48
2023/12/09 17:41:23;;;;;;;0.77;0.20;;;;;;;;;;16108123;19;129106;-51
2023/12/09 17:46:45;;;;;;;0.40;0.20;;;;;;;18.92;37.13;99147.34;16112529;19;131077;-53
2023/12/09 17:52:07;;;;;;;0.32;0.10;;;;;;;18.92;36.97;99155.66;16109659;19;130916;-52
2023/12/09 17:57:29;;;;;;;0.30;0.10;;;;;;;18.91;37.11;99159.53;16110494;19;129462;-49
2023/12/09 18:02:51;;;;;;;2.97;0.10;;;;;;;18.89;37.25;99167.31;16110972;19;130284;-48
2023/12/09 18:08:13;;;;;;;0.50;0.20;;;;;;;19.01;36.79;99181.63;16112197;19;131009;-49
2023/12/09 18:13:35;;;;;;;0.63;0.20;;;;;;;19.21;36.52;99188.94;16110969;19;129788;-52
2023/12/09 18:18:57;;;;;;;0.77;0.30;;;;;;;19.45;36.47;99184.50;16113611;19;129399;-49
2023/12/09 18:24:20;;;;;;;1.08;0.50;;;;;;;19.65;35.95;99195.41;16119380;19;129903;-49
2023/12/09 18:29:42;;;;;;;0.90;0.20;;;;;;;19.83;35.88;99217.94;16124812;19;129726;-52
2023/12/09 18:35:09;;;;;;;2.03;0.70;;;;;;;19.96;35.66;99233.03;16121689;19;129428;-52
2023/12/09 18:40:31;;;;;;;1.20;0.30;;;;;;;20.07;35.91;99267.06;16131215;19;131253;-51
2023/12/09 18:45:53;;;;;;;1.30;0.40;;;;;;;20.12;35.51;99275.34;16130465;19;129739;-50
2023/12/09 18:51:15;;;;;;;0.52;0.32;;;;;;;20.13;35.82;99302.00;16124626;19;130457;-48
2023/12/09 18:56:37;;;;;;;0.90;0.43;;;;;;;20.07;35.65;99312.31;16131307;19;130668;-48
2023/12/09 19:01:59;;;;;;;1.42;0.55;;;;;;;19.98;35.87;99337.09;16127256;19;132660;-52
2023/12/09 19:07:34;;;;;;;2.55;0.80;;;;;;;19.86;35.75;99358.88;16126166;19;130126;-49
2023/12/09 19:12:58;;;;;;;1.40;0.40;;;;;;;19.74;35.97;99369.53;16135111;19;131456;-53
2023/12/09 19:18:20;;;;;;;1.88;0.57;;;;;;;19.60;36.28;99367.44;16134915;19;133450;-51
2023/12/09 19:23:43;;;;;;;2.25;0.60;;;;;;;19.48;36.08;99384.47;16134540;19;130071;-53
2023/12/09 19:29:05;;;;;;;1.70;0.63;;;;;;;19.37;36.22;99399.53;16133406;19;129616;-49
2023/12/09 19:34:27;;;;;;;1.35;0.45;;;;;;;19.29;36.80;99425.94;16125866;19;131576;-49
2023/12/09 19:39:49;;;;;;;1.10;0.40;;;;;;;19.24;36.62;99437.03;16120163;19;130359;-48
2023/12/09 19:45:11;;;;;;;1.60;0.70;;;;;;;19.30;36.80;99448.91;16115441;19;132170;-53
2023/12/09 19:50:33;;;;;;;2.33;0.70;;;;;;;19.44;36.34;99460.22;16108984;19;129603;-47
2023/12/09 19:55:55;;;;;;;1.67;0.52;;;;;;;19.60;36.34;99474.81;16109798;19;130765;-51
2023/12/09 20:01:17;;;;;;;2.25;0.85;;;;;;;19.75;36.08;99482.19;16115507;19;130404;-52
2023/12/09 20:06:39;;;;;;;7.60;0.90;;;;;;;19.88;36.51;99487.06;16120417;19;130221;-52
2023/12/09 20:12:04;;;;;;;3.38;1.20;;;;;;;20.01;36.52;99491.16;16117043;19;130676;-45
2023/12/09 20:17:26;;;;;;;6.72;1.10;;;;;;;20.12;37.08;99500.22;16119710;19;131585;-46
2023/12/09 20:22:48;;;;;;;6.25;1.13;;;;;;;20.24;37.90;99506.22;16116907;19;129540;-47
2023/12/09 20:28:10;;;;;;;8.18;1.58;;;;;;;20.35;38.20;99506.13;16116461;19;129686;-48
2023/12/09 20:33:34;;;;;;;9.95;1.02;;;;;;;20.40;38.68;99511.63;16111262;19;130636;-47
2023/12/09 20:38:56;;;;;;;9.95;1.58;;;;;;;20.42;38.97;99526.88;16112637;19;133204;-50
2023/12/09 20:44:18;;;;;;;17.55;1.85;;;;;;;20.44;39.53;99541.31;16108943;19;129813;-51
2023/12/09 20:49:41;;;;;;;13.85;2.05;;;;;;;20.43;39.74;99544.41;16111730;19;130000;-48
2023/12/09 20:55:05;;;;;;;20.40;1.83;;;;;;;20.41;39.97;99561.34;16108681;19;131180;-47
2023/12/09 21:00:27;;;;;;;12.57;1.90;;;;;;;20.37;40.50;99584.44;16103274;19;131874;-51
2023/12/09 21:05:49;;;;;;;12.15;1.90;;;;;;;20.33;40.75;99605.56;16106219;19;131542;-49
2023/12/09 21:11:13;;;;;;;11.60;2.17;;;;;;;20.24;41.05;99611.75;16108827;19;130461;-45
2023/12/09 21:16:35;;;;;;;21.90;2.42;;;;;;;20.12;41.47;99636.28;16108553;19;130612;-50
2023/12/09 21:21:57;;;;;;;13.48;1.95;;;;;;;19.99;41.26;99671.88;16104011;19;129982;-50
2023/12/09 21:27:19;;;;;;;13.68;2.22;;;;;;;19.88;40.89;99673.03;16106065;19;130949;-48
2023/12/09 21:32:41;;;;;;;25.90;2.60;;;;;;;19.78;41.50;99681.41;16105724;19;129910;-51
2023/12/09 21:38:04;;;;;;;14.63;2.60;;;;;;;19.67;41.39;99692.56;16105649;19;130995;-52
2023/12/09 21:43:26;;;;;;;13.30;2.20;;;;;;;19.61;41.39;99709.50;16107486;19;131989;-49
2023/12/09 21:48:50;;;;;;;15.18;2.47;;;;;;;19.52;41.19;99712.84;16103587;19;129888;-46
2023/12/09 21:54:14;;;;;;;14.43;2.40;;;;;;;19.45;41.69;99725.34;16103679;19;129714;-48
2023/12/09 21:59:36;;;;;;;19.58;2.65;;;;;;;19.36;41.23;99737.00;16107851;19;130635;-50
2023/12/09 22:04:58;;;;;;;15.48;2.83;;;;;;;19.28;41.35;99734.81;16109531;19;129694;-51
2023/12/09 22:10:20;;;;;;;17.85;2.58;;;;;;;19.20;41.37;99754.78;16108832;19;133734;-47
2023/12/09 22:15:46;;;;;;;17.85;3.53;;;;;;;19.14;41.42;99761.41;16119434;19;130127;-47
2023/12/09 22:21:09;;;;;;;14.95;2.70;;;;;;;19.07;41.68;99779.19;16121613;19;130227;-50
2023/12/09 22:26:32;;;;;;;12.68;2.60;;;;;;;19.02;41.75;99778.31;16121351;19;129741;-48
2023/12/09 22:31:54;;;;;;;13.18;3.10;;;;;;;18.98;41.32;99814.06;16116473;19;130294;-48
2023/12/09 22:37:19;;;;;;;17.08;2.70;;;;;;;18.94;41.78;99828.75;16110927;19;130823;-48
2023/12/09 22:42:41;;;;;;;16.03;2.93;;;;;;;18.90;41.50;99839.56;16112535;19;134970;-47
2023/12/09 22:48:03;;;;;;;11.05;2.40;;;;;;;18.86;41.64;99844.00;16120095;19;130005;-51
2023/12/09 22:53:25;;;;;;;11.98;2.45;;;;;;;18.82;41.64;99840.13;16113972;19;130887;-48
2023/12/09 22:58:49;;;;;;;14.57;2.72;;;;;;;18.79;41.38;99854.50;16114192;19;131328;-50
2023/12/09 23:04:11;;;;;;;12.45;2.95;;;;;;;18.74;41.55;99860.88;16116923;19;130970;-50
2023/12/09 23:09:33;;;;;;;12.07;2.85;;;;;;;18.72;41.55;99846.47;16118440;19;130953;-48
2023/12/09 23:14:55;;;;;;;12.40;3.13;;;;;;;18.68;41.70;99857.25;16117618;19;131527;-48
2023/12/09 23:20:18;;;;;;;14.98;3.00;;;;;;;18.66;41.49;99878.00;16112255;19;129406;-47
2023/12/09 23:25:40;;;;;;;10.93;2.58;;;;;;;18.63;41.75;99882.16;16112875;19;131354;-52
2023/12/09 23:31:02;;;;;;;13.10;2.63;;;;;;;18.61;41.57;99895.44;16113626;19;129621;-47
2023/12/09 23:36:25;;;;;;;13.18;2.88;;;;;;;18.57;41.26;99903.47;16115201;19;131144;-50
2023/12/09 23:41:47;;;;;;;14.20;3.15;;;;;;;18.54;41.46;99908.75;16119028;19;130251;-48
2023/12/09 23:47:09;;;;;;;16.50;2.85;;;;;;;18.51;41.25;99903.72;16115527;19;129595;-51
2023/12/09 23:52:32;;;;;;;9.02;2.30;;;;;;;18.47;41.34;99911.75;16115321;19;130622;-50
2023/12/09 23:57:54;;;;;;;11.45;3.08;;;;;;;18.45;41.34;99911.19;16115372;19;129566;-50
